createdAt,value
2023-03-11T00:02:05.735Z,97094.12
2023-03-11T00:05:09.300Z,97092.13
2023-03-11T00:08:16.288Z,97090.59
2023-03-11T00:11:19.818Z,97088.00
2023-03-11T00:14:22.185Z,97090.81
2023-03-11T00:17:24.333Z,97101.09
2023-03-11T00:20:37.961Z,97090.03
2023-03-11T00:23:43.262Z,97103.09
2023-03-11T00:26:45.420Z,97095.13
2023-03-11T00:29:47.731Z,97093.88
2023-03-11T00:32:55.216Z,97099.03
2023-03-11T00:35:57.379Z,97097.44
2023-03-11T00:39:02.145Z,97100.88
2023-03-11T00:42:04.417Z,97100.75
2023-03-11T00:45:07.190Z,97087.91
2023-03-11T00:48:09.718Z,97101.69
2023-03-11T00:51:14.872Z,97100.22
2023-03-11T00:54:17.085Z,97103.53
2023-03-11T00:57:19.252Z,97087.03
2023-03-11T01:00:23.152Z,97089.37
2023-03-11T01:03:25.368Z,97106.50
2023-03-11T01:06:35.756Z,97098.34
2023-03-11T01:09:41.518Z,97099.72
2023-03-11T01:12:43.815Z,97100.34
2023-03-11T01:15:46.053Z,97109.88
2023-03-11T01:18:48.501Z,97105.37
2023-03-11T01:21:50.700Z,97095.47
2023-03-11T01:24:53.068Z,97105.09
2023-03-11T01:27:55.294Z,97095.28
2023-03-11T01:30:57.551Z,97096.59
2023-03-11T01:33:59.774Z,97079.69
2023-03-11T01:37:03.429Z,97078.00
2023-03-11T01:40:07.457Z,97084.28
2023-03-11T01:43:40.677Z,97065.50
2023-03-11T01:46:52.181Z,97058.75
2023-03-11T01:49:54.326Z,97054.94
2023-03-11T01:52:56.445Z,97074.09
2023-03-11T01:55:58.908Z,97065.47
2023-03-11T01:59:01.226Z,97062.56
2023-03-11T02:02:11.674Z,97057.63
2023-03-11T02:05:14.171Z,97038.47
2023-03-11T02:08:16.399Z,97060.28
2023-03-11T02:11:27.412Z,97069.56
2023-03-11T02:14:30.922Z,97075.81
2023-03-11T02:17:34.147Z,97079.66
2023-03-11T02:20:57.664Z,97081.66
2023-03-11T02:24:23.390Z,97087.03
2023-03-11T02:27:27.306Z,97090.88
2023-03-11T02:30:29.623Z,97101.84
2023-03-11T02:33:32.841Z,97103.16
2023-03-11T02:36:40.897Z,97105.88
2023-03-11T02:39:46.295Z,97104.09
2023-03-11T02:42:52.655Z,97114.13
2023-03-11T02:45:56.461Z,97099.25
2023-03-11T02:49:00.023Z,97087.97
2023-03-11T02:52:02.517Z,97099.91
2023-03-11T02:55:05.634Z,97097.94
2023-03-11T02:58:07.819Z,97089.44
2023-03-11T03:01:10.700Z,97096.09
2023-03-11T03:04:13.021Z,97083.72
2023-03-11T03:07:15.241Z,97091.03
2023-03-11T03:10:18.577Z,97095.91
2023-03-11T03:13:20.795Z,97100.34
2023-03-11T03:16:23.166Z,97104.34
2023-03-11T03:19:25.456Z,97107.72
2023-03-11T03:22:29.440Z,97098.00
2023-03-11T03:25:31.675Z,97106.59
2023-03-11T03:28:33.857Z,97094.66
2023-03-11T03:31:36.107Z,97096.97
2023-03-11T03:34:38.383Z,97108.69
2023-03-11T03:37:40.816Z,97116.03
2023-03-11T03:40:46.642Z,97121.19
2023-03-11T03:43:48.920Z,97142.34
2023-03-11T03:46:51.114Z,97140.25
2023-03-11T03:49:53.321Z,97143.28
2023-03-11T03:52:55.508Z,97121.47
2023-03-11T03:55:57.692Z,97165.87
2023-03-11T03:58:59.863Z,97170.28
2023-03-11T04:02:02.153Z,97154.47
2023-03-11T04:05:04.937Z,97122.59
2023-03-11T04:08:07.355Z,97138.94
2023-03-11T04:11:09.518Z,97128.03
2023-03-11T04:14:11.728Z,97147.25
2023-03-11T04:17:14.764Z,97151.53
2023-03-11T04:20:17.022Z,97170.50
2023-03-11T04:23:19.226Z,97167.19
2023-03-11T04:26:21.393Z,97204.31
2023-03-11T04:29:23.654Z,97195.72
2023-03-11T04:32:25.908Z,97197.22
2023-03-11T04:35:28.177Z,97203.78
2023-03-11T04:38:30.331Z,97185.66
2023-03-11T04:41:32.486Z,97185.47
2023-03-11T04:44:35.994Z,97177.19
2023-03-11T04:47:38.236Z,97174.22
2023-03-11T04:50:40.396Z,97170.00
2023-03-11T04:53:42.613Z,97156.22
2023-03-11T04:56:44.882Z,97166.78
2023-03-11T04:59:47.270Z,97173.53
2023-03-11T05:02:49.443Z,97182.63
2023-03-11T05:05:54.061Z,97171.84
2023-03-11T05:08:56.280Z,97210.47
2023-03-11T05:11:58.425Z,97201.19
2023-03-11T05:15:00.617Z,97216.38
2023-03-11T05:18:03.941Z,97225.06
2023-03-11T05:21:06.292Z,97211.28
2023-03-11T05:24:08.523Z,97222.00
2023-03-11T05:27:10.744Z,97220.72
2023-03-11T05:30:13.160Z,97221.34
2023-03-11T05:33:15.399Z,97221.44
2023-03-11T05:36:17.605Z,97229.56
2023-03-11T05:39:19.781Z,97253.34
2023-03-11T05:42:22.001Z,97265.28
2023-03-11T05:45:25.033Z,97262.84
2023-03-11T05:48:27.336Z,97252.06
2023-03-11T05:51:29.579Z,97248.44
2023-03-11T05:54:31.791Z,97254.53
2023-03-11T05:57:33.969Z,97280.97
2023-03-11T06:00:36.905Z,97287.09
2023-03-11T06:03:39.622Z,97290.84
2023-03-11T06:06:42.028Z,97276.31
2023-03-11T06:09:44.295Z,97277.78
2023-03-11T06:12:46.474Z,97285.03
2023-03-11T06:15:48.659Z,97285.88
2023-03-11T06:18:51.625Z,97279.28
2023-03-11T06:21:53.908Z,97297.06
2023-03-11T06:24:56.060Z,97291.38
2023-03-11T06:27:58.336Z,97294.44
2023-03-11T06:31:08.756Z,97296.03
2023-03-11T06:34:11.784Z,97278.00
2023-03-11T06:37:13.969Z,97295.81
2023-03-11T06:40:16.390Z,97316.13
2023-03-11T06:43:19.100Z,97316.28
2023-03-11T06:46:22.655Z,97315.16
2023-03-11T06:49:24.980Z,97312.47
2023-03-11T06:52:27.197Z,97334.03
2023-03-11T06:55:29.382Z,97363.84
2023-03-11T06:58:32.188Z,97359.81
2023-03-11T07:01:34.513Z,97384.13
2023-03-11T07:04:36.751Z,97374.19
2023-03-11T07:07:38.928Z,97371.72
2023-03-11T07:10:41.075Z,97380.69
2023-03-11T07:13:43.898Z,97380.25
2023-03-11T07:16:46.140Z,97388.56
2023-03-11T07:19:48.366Z,97370.28
2023-03-11T07:22:50.620Z,97374.00
2023-03-11T07:25:52.991Z,97389.00
2023-03-11T07:28:55.873Z,97383.12
2023-03-11T07:31:58.227Z,97388.03
2023-03-11T07:35:00.447Z,97396.91
2023-03-11T07:38:02.655Z,97385.22
2023-03-11T07:41:05.365Z,97390.34
2023-03-11T07:44:09.821Z,97402.37
2023-03-11T07:47:12.139Z,97383.75
2023-03-11T07:50:14.416Z,97378.84
2023-03-11T07:53:16.606Z,97391.12
2023-03-11T07:56:19.493Z,97377.97
2023-03-11T07:59:21.727Z,97376.72
2023-03-11T08:02:23.914Z,97373.00
2023-03-11T08:05:26.169Z,97399.47
2023-03-11T08:08:28.497Z,97401.50
2023-03-11T08:11:31.981Z,97424.72
2023-03-11T08:14:34.203Z,97416.22
2023-03-11T08:17:36.414Z,97413.47
2023-03-11T08:20:39.270Z,97434.53
2023-03-11T08:23:41.558Z,97416.44
2023-03-11T08:26:43.816Z,97411.25
2023-03-11T08:29:46.010Z,97395.34
2023-03-11T08:32:49.355Z,97396.25
2023-03-11T08:35:51.614Z,97394.13
2023-03-11T08:38:53.859Z,97402.19
2023-03-11T08:41:56.124Z,97410.37
2023-03-11T08:44:58.294Z,97414.22
2023-03-11T08:48:00.753Z,97418.56
2023-03-11T08:51:06.833Z,97421.03
2023-03-11T08:54:09.140Z,97383.09
2023-03-11T13:09:42.979Z,97661.41
2023-03-11T13:12:47.533Z,97661.41
2023-03-11T13:15:50.364Z,97654.72
2023-03-11T13:18:52.531Z,97643.91
2023-03-11T13:21:57.899Z,97668.06
2023-03-11T13:25:25.015Z,97662.28
2023-03-11T13:28:51.885Z,97686.88
2023-03-11T13:32:19.096Z,97719.03
2023-03-11T13:35:51.733Z,97716.06
2023-03-11T13:39:23.467Z,97722.75
2023-03-11T13:42:30.786Z,97738.31
2023-03-11T13:45:35.686Z,97748.03
2023-03-11T13:48:49.374Z,97771.28
2023-03-11T13:51:54.054Z,97767.03
2023-03-11T13:55:04.047Z,97773.91
2023-03-11T13:58:35.522Z,97791.75
2023-03-11T14:01:37.717Z,97793.78
2023-03-11T14:04:43.115Z,97811.81
2023-03-11T14:07:45.586Z,97806.34
2023-03-11T14:11:15.411Z,97809.19
2023-03-11T14:14:30.500Z,97799.47
2023-03-11T14:17:33.871Z,97803.31
2023-03-11T14:20:36.260Z,97796.63
2023-03-11T14:23:47.147Z,97804.13
2023-03-11T14:26:53.670Z,97821.91
2023-03-11T14:29:55.885Z,97810.78
2023-03-11T14:33:02.401Z,97817.66
2023-03-11T14:36:07.116Z,97825.53
2023-03-11T14:39:29.352Z,97802.28
2023-03-11T14:42:39.464Z,97803.09
2023-03-11T14:45:42.290Z,97816.66
2023-03-11T14:48:44.748Z,97828.37
2023-03-11T14:51:49.299Z,97822.91
2023-03-11T14:54:53.489Z,97833.44
2023-03-11T14:58:17.898Z,97846.78
2023-03-11T15:01:26.441Z,97834.44
2023-03-11T15:04:32.949Z,97841.50
2023-03-11T15:07:36.458Z,97841.12
2023-03-11T15:10:38.748Z,97856.03
2023-03-11T15:13:43.562Z,97861.31
2023-03-11T15:16:45.950Z,97872.00
2023-03-11T15:19:48.161Z,97880.50
2023-03-11T15:23:00.761Z,97888.41
2023-03-11T15:26:04.275Z,97916.28
2023-03-11T15:29:16.986Z,97913.22
2023-03-11T15:32:31.550Z,97916.66
2023-03-11T15:35:46.520Z,97914.81
2023-03-11T15:39:26.494Z,97924.91
2023-03-11T15:42:28.905Z,97936.25
2023-03-11T15:45:31.354Z,97943.13
2023-03-11T15:48:33.633Z,97931.97
2023-03-11T15:51:35.867Z,97943.31
2023-03-11T15:54:38.455Z,97944.28
2023-03-11T15:57:41.468Z,97943.47
2023-03-11T16:00:52.163Z,97972.56
2023-03-11T16:03:55.321Z,97964.84
2023-03-11T16:07:07.580Z,97977.12
2023-03-11T16:10:11.717Z,97977.31
2023-03-11T16:13:15.087Z,97983.75
2023-03-11T16:16:18.024Z,97987.38
2023-03-11T16:19:20.493Z,97988.81
2023-03-11T16:22:36.525Z,97994.81
2023-03-11T16:25:40.120Z,98012.22
2023-03-11T16:28:42.926Z,98023.12
2023-03-11T16:31:45.529Z,98017.66
2023-03-11T16:34:47.820Z,98035.22
2023-03-11T16:37:50.589Z,98036.03
2023-03-11T16:41:02.431Z,98043.47
2023-03-11T16:44:04.950Z,98044.69
2023-03-11T16:47:07.250Z,98047.72
2023-03-11T16:50:10.547Z,98074.56
2023-03-11T16:53:16.106Z,98065.25
2023-03-11T16:56:19.227Z,98080.41
2023-03-11T16:59:21.389Z,98097.34
2023-03-11T17:02:24.635Z,98100.78
2023-03-11T17:05:26.870Z,98091.38
2023-03-11T17:08:29.154Z,98120.91
2023-03-11T17:11:33.205Z,98118.28
2023-03-11T17:14:36.246Z,98114.12
2023-03-11T17:17:38.550Z,98135.06
2023-03-11T17:20:43.572Z,98136.19
2023-03-11T17:23:46.229Z,98147.03
2023-03-11T17:26:48.644Z,98143.97
2023-03-11T17:29:50.885Z,98155.84
2023-03-11T17:32:53.381Z,98155.09
2023-03-11T17:36:06.702Z,98154.28
2023-03-11T17:39:09.209Z,98167.59
2023-03-11T17:42:11.570Z,98171.03
2023-03-11T17:45:13.973Z,98166.34
2023-03-11T17:48:16.504Z,98184.44
2023-03-11T17:51:21.406Z,98168.34
2023-03-11T17:54:23.631Z,98185.06
2023-03-11T17:57:26.505Z,98188.13
2023-03-11T18:00:28.940Z,98187.41
2023-03-11T18:03:31.454Z,98187.13
2023-03-11T18:06:33.881Z,98180.44
2023-03-11T18:09:36.459Z,98196.38
2023-03-11T18:12:39.190Z,98191.50
2023-03-11T18:15:41.642Z,98204.53
2023-03-11T18:18:44.463Z,98194.59
2023-03-11T18:21:46.963Z,98200.84
2023-03-11T18:24:49.477Z,98201.38
2023-03-11T18:27:52.084Z,98204.53
2023-03-11T18:30:54.860Z,98211.03
2023-03-11T18:33:59.756Z,98213.03
2023-03-11T18:37:02.368Z,98222.91
2023-03-11T18:40:05.840Z,98233.37
2023-03-11T18:43:08.331Z,98243.44
2023-03-11T18:46:14.024Z,98242.44
2023-03-11T18:49:16.867Z,98251.03
2023-03-11T18:52:19.249Z,98264.78
2023-03-11T18:55:21.670Z,98260.88
2023-03-11T18:58:23.866Z,98263.87
2023-03-11T19:01:27.536Z,98274.72
2023-03-11T19:04:30.187Z,98270.09
2023-03-11T19:07:32.607Z,98283.91
2023-03-11T19:10:35.089Z,98282.28
2023-03-11T19:13:46.795Z,98281.62
2023-03-11T19:16:49.994Z,98294.94
2023-03-11T19:19:55.410Z,98295.63
2023-03-11T19:22:57.646Z,98304.22
2023-03-11T19:26:03.671Z,98317.03
2023-03-11T19:29:06.724Z,98328.69
2023-03-11T19:32:09.098Z,98323.13
2023-03-11T19:35:13.758Z,98325.13
2023-03-11T19:38:16.254Z,98320.94
2023-03-11T19:41:19.714Z,98311.97
2023-03-11T19:44:22.204Z,98323.63
2023-03-11T19:47:24.745Z,98321.34
2023-03-11T19:50:27.289Z,98318.06
2023-03-11T19:53:29.871Z,98328.72
2023-03-11T19:56:32.394Z,98332.31
2023-03-11T19:59:34.888Z,98351.16
2023-03-11T20:02:37.325Z,98349.81
2023-03-11T20:05:41.622Z,98355.06
2023-03-11T20:08:44.127Z,98356.69
2023-03-11T20:11:46.946Z,98364.25
2023-03-11T20:14:49.406Z,98371.94
2023-03-11T20:17:51.676Z,98374.88
2023-03-11T20:20:54.125Z,98387.03
2023-03-11T20:23:57.242Z,98384.78
2023-03-11T20:26:59.527Z,98382.03
2023-03-11T20:30:02.017Z,98385.34
2023-03-11T20:33:04.737Z,98382.09
2023-03-11T20:36:09.944Z,98381.00
2023-03-11T20:39:12.459Z,98374.12
2023-03-11T20:42:15.034Z,98373.50
2023-03-11T20:45:21.771Z,98363.37
2023-03-11T20:48:24.535Z,98363.06
2023-03-11T20:51:26.979Z,98349.66
2023-03-11T20:54:29.449Z,98342.31
2023-03-11T20:57:31.908Z,98348.22
2023-03-11T21:00:34.698Z,98354.94
2023-03-11T21:03:37.302Z,98346.78
2023-03-11T21:06:41.131Z,98359.84
2023-03-11T21:09:43.514Z,98361.34
2023-03-11T21:12:45.846Z,98362.50
2023-03-11T21:15:48.422Z,98358.41
2023-03-11T21:18:51.225Z,98355.63
2023-03-11T21:21:53.745Z,98356.13
2023-03-11T21:24:56.360Z,98376.56
2023-03-11T21:27:58.609Z,98340.28
2023-03-11T21:31:04.799Z,98360.56
2023-03-11T21:34:07.137Z,98335.41
2023-03-11T21:37:09.533Z,98350.25
2023-03-11T21:40:12.609Z,98361.69
2023-03-11T21:43:14.872Z,98359.75
2023-03-11T21:46:19.532Z,98385.37
2023-03-11T21:49:21.950Z,98379.81
2023-03-11T21:52:24.336Z,98383.09
2023-03-11T21:55:26.531Z,98381.94
2023-03-11T21:58:28.743Z,98376.41
2023-03-11T22:01:31.704Z,98379.34
2023-03-11T22:04:34.087Z,98392.41
2023-03-11T22:07:36.530Z,98378.53
2023-03-11T22:10:38.888Z,98387.19
2023-03-11T22:13:41.152Z,98401.56
2023-03-11T22:16:43.995Z,98384.41
2023-03-11T22:19:46.362Z,98401.06
2023-03-11T22:22:48.729Z,98400.25
2023-03-11T22:25:50.869Z,98406.13
2023-03-11T22:28:53.081Z,98406.78
2023-03-11T22:31:55.408Z,98415.44
2023-03-11T22:34:57.612Z,98409.22
2023-03-11T22:37:59.806Z,98423.13
2023-03-11T22:41:04.848Z,98437.97
2023-03-11T22:44:07.174Z,98450.25
2023-03-11T22:47:09.447Z,98469.50
2023-03-11T22:50:11.696Z,98468.69
2023-03-11T22:53:15.561Z,98469.34
2023-03-11T22:56:18.387Z,98472.28
2023-03-11T22:59:20.679Z,98488.12
2023-03-11T23:02:22.936Z,98493.34
2023-03-11T23:05:25.413Z,98481.75
2023-03-11T23:08:28.063Z,98488.44
2023-03-11T23:11:30.301Z,98486.47
2023-03-11T23:14:44.158Z,98476.47
2023-03-11T23:17:47.297Z,98470.16
2023-03-11T23:20:49.520Z,98480.91
2023-03-11T23:23:53.431Z,98490.91
2023-03-11T23:26:55.654Z,98501.78
2023-03-11T23:29:58.056Z,98510.78
2023-03-11T23:33:02.938Z,98521.53
2023-03-11T23:36:08.356Z,98513.88
2023-03-11T23:39:10.576Z,98522.03
2023-03-11T23:42:24.940Z,98527.72
2023-03-11T23:45:27.869Z,98525.62
2023-03-11T23:48:30.529Z,98528.22
2023-03-11T23:51:32.712Z,98534.91
2023-03-11T23:54:35.521Z,98550.72
2023-03-11T23:57:38.732Z,98557.91
